sensor_id;sensor_type;location;lat;lon;timestamp;temperature;humidity
262;DHT22;114;48.260;10.988;2024-03-22T00:01:57;4.40;1.00
262;DHT22;114;48.260;10.988;2024-03-22T00:04:23;4.40;1.00
262;DHT22;114;48.260;10.988;2024-03-22T00:06:49;4.30;1.00
262;DHT22;114;48.260;10.988;2024-03-22T00:09:15;4.30;1.00
262;DHT22;114;48.260;10.988;2024-03-22T00:11:42;4.30;1.00
262;DHT22;114;48.260;10.988;2024-03-22T00:14:10;4.30;1.00
262;DHT22;114;48.260;10.988;2024-03-22T00:16:36;4.30;1.00
262;DHT22;114;48.260;10.988;2024-03-22T00:19:02;4.30;1.00
262;DHT22;114;48.260;10.988;2024-03-22T00:21:29;4.30;1.00
262;DHT22;114;48.260;10.988;2024-03-22T00:23:58;4.30;1.00
262;DHT22;114;48.260;10.988;2024-03-22T00:26:26;4.30;1.00
262;DHT22;114;48.260;10.988;2024-03-22T00:28:53;4.30;1.00
262;DHT22;114;48.260;10.988;2024-03-22T00:31:19;4.30;1.00
262;DHT22;114;48.260;10.988;2024-03-22T00:33:44;4.30;1.00
262;DHT22;114;48.260;10.988;2024-03-22T00:36:10;4.30;1.00
262;DHT22;114;48.260;10.988;2024-03-22T00:38:36;4.30;1.00
262;DHT22;114;48.260;10.988;2024-03-22T00:41:02;4.30;1.00
262;DHT22;114;48.260;10.988;2024-03-22T00:43:28;4.30;1.00
262;DHT22;114;48.260;10.988;2024-03-22T00:45:54;4.30;1.00
262;DHT22;114;48.260;10.988;2024-03-22T00:48:20;4.30;1.00
262;DHT22;114;48.260;10.988;2024-03-22T00:50:46;4.20;1.00
262;DHT22;114;48.260;10.988;2024-03-22T00:53:13;4.10;1.00
262;DHT22;114;48.260;10.988;2024-03-22T00:55:39;4.10;1.00
262;DHT22;114;48.260;10.988;2024-03-22T00:58:04;4.10;1.00
262;DHT22;114;48.260;10.988;2024-03-22T01:00:30;4.20;1.00
262;DHT22;114;48.260;10.988;2024-03-22T01:02:56;4.20;1.00
262;DHT22;114;48.260;10.988;2024-03-22T01:05:22;4.20;1.00
262;DHT22;114;48.260;10.988;2024-03-22T01:07:49;4.10;1.00
262;DHT22;114;48.260;10.988;2024-03-22T01:10:14;4.10;1.00
262;DHT22;114;48.260;10.988;2024-03-22T01:12:40;4.10;1.00
262;DHT22;114;48.260;10.988;2024-03-22T01:15:07;4.10;1.00
262;DHT22;114;48.260;10.988;2024-03-22T01:17:34;4.10;1.00
262;DHT22;114;48.260;10.988;2024-03-22T01:20:01;4.10;1.00
262;DHT22;114;48.260;10.988;2024-03-22T01:22:27;4.00;1.00
262;DHT22;114;48.260;10.988;2024-03-22T01:24:54;4.00;1.00
262;DHT22;114;48.260;10.988;2024-03-22T01:27:20;4.10;1.00
262;DHT22;114;48.260;10.988;2024-03-22T01:29:47;4.10;1.00
262;DHT22;114;48.260;10.988;2024-03-22T01:32:13;4.00;1.00
262;DHT22;114;48.260;10.988;2024-03-22T01:34:39;4.00;1.00
262;DHT22;114;48.260;10.988;2024-03-22T01:37:05;4.00;1.00
262;DHT22;114;48.260;10.988;2024-03-22T01:39:31;4.00;1.00
262;DHT22;114;48.260;10.988;2024-03-22T01:41:59;3.90;1.00
262;DHT22;114;48.260;10.988;2024-03-22T01:44:33;3.90;1.00
262;DHT22;114;48.260;10.988;2024-03-22T01:46:59;3.90;1.00
262;DHT22;114;48.260;10.988;2024-03-22T01:49:25;3.80;1.00
262;DHT22;114;48.260;10.988;2024-03-22T01:51:53;3.80;1.00
262;DHT22;114;48.260;10.988;2024-03-22T01:54:20;3.80;1.00
262;DHT22;114;48.260;10.988;2024-03-22T01:56:46;3.80;1.00
262;DHT22;114;48.260;10.988;2024-03-22T01:59:13;3.80;1.00
262;DHT22;114;48.260;10.988;2024-03-22T02:01:39;3.70;1.00
262;DHT22;114;48.260;10.988;2024-03-22T02:04:06;3.70;1.00
262;DHT22;114;48.260;10.988;2024-03-22T02:06:33;3.70;1.00
262;DHT22;114;48.260;10.988;2024-03-22T02:09:00;3.70;1.00
262;DHT22;114;48.260;10.988;2024-03-22T02:11:27;3.70;1.00
262;DHT22;114;48.260;10.988;2024-03-22T02:13:53;3.70;1.00
262;DHT22;114;48.260;10.988;2024-03-22T02:16:20;3.60;1.00
262;DHT22;114;48.260;10.988;2024-03-22T02:18:45;3.60;1.00
262;DHT22;114;48.260;10.988;2024-03-22T02:21:11;3.60;1.00
262;DHT22;114;48.260;10.988;2024-03-22T02:23:38;3.50;1.00
262;DHT22;114;48.260;10.988;2024-03-22T02:26:05;3.50;1.00
262;DHT22;114;48.260;10.988;2024-03-22T02:28:33;3.50;1.00
262;DHT22;114;48.260;10.988;2024-03-22T02:30:59;3.50;1.00
262;DHT22;114;48.260;10.988;2024-03-22T02:33:25;3.50;1.00
262;DHT22;114;48.260;10.988;2024-03-22T02:35:51;3.50;1.00
262;DHT22;114;48.260;10.988;2024-03-22T02:38:18;3.40;1.00
262;DHT22;114;48.260;10.988;2024-03-22T02:40:44;3.40;1.00
262;DHT22;114;48.260;10.988;2024-03-22T02:43:11;3.40;1.00
262;DHT22;114;48.260;10.988;2024-03-22T02:45:37;3.40;1.00
262;DHT22;114;48.260;10.988;2024-03-22T02:48:03;3.40;1.00
262;DHT22;114;48.260;10.988;2024-03-22T02:50:36;3.30;1.00
262;DHT22;114;48.260;10.988;2024-03-22T02:53:02;3.40;1.00
262;DHT22;114;48.260;10.988;2024-03-22T02:55:28;3.40;1.00
262;DHT22;114;48.260;10.988;2024-03-22T02:57:55;3.50;1.00
262;DHT22;114;48.260;10.988;2024-03-22T03:00:22;3.40;1.00
262;DHT22;114;48.260;10.988;2024-03-22T03:02:49;3.50;1.00
262;DHT22;114;48.260;10.988;2024-03-22T03:05:15;3.50;1.00
262;DHT22;114;48.260;10.988;2024-03-22T03:07:42;3.40;1.00
262;DHT22;114;48.260;10.988;2024-03-22T03:10:08;3.30;1.00
262;DHT22;114;48.260;10.988;2024-03-22T03:12:34;3.40;1.00
262;DHT22;114;48.260;10.988;2024-03-22T03:15:00;3.40;1.00
262;DHT22;114;48.260;10.988;2024-03-22T03:17:25;3.30;1.00
262;DHT22;114;48.260;10.988;2024-03-22T03:19:51;3.30;1.00
262;DHT22;114;48.260;10.988;2024-03-22T03:22:17;3.30;1.00
262;DHT22;114;48.260;10.988;2024-03-22T03:24:43;3.30;1.00
262;DHT22;114;48.260;10.988;2024-03-22T03:27:09;3.30;1.00
262;DHT22;114;48.260;10.988;2024-03-22T03:29:36;3.70;1.00
262;DHT22;114;48.260;10.988;2024-03-22T03:32:01;3.60;1.00
262;DHT22;114;48.260;10.988;2024-03-22T03:34:28;3.50;1.00
262;DHT22;114;48.260;10.988;2024-03-22T03:36:55;3.60;1.00
262;DHT22;114;48.260;10.988;2024-03-22T03:39:21;3.40;1.00
262;DHT22;114;48.260;10.988;2024-03-22T03:41:47;3.30;1.00
262;DHT22;114;48.260;10.988;2024-03-22T03:44:12;3.10;1.00
262;DHT22;114;48.260;10.988;2024-03-22T03:46:39;3.10;1.00
262;DHT22;114;48.260;10.988;2024-03-22T03:49:07;3.30;1.00
262;DHT22;114;48.260;10.988;2024-03-22T03:51:33;3.60;1.00
262;DHT22;114;48.260;10.988;2024-03-22T03:53:58;3.80;1.00
262;DHT22;114;48.260;10.988;2024-03-22T03:56:24;3.90;1.00
262;DHT22;114;48.260;10.988;2024-03-22T03:58:50;4.10;1.00
262;DHT22;114;48.260;10.988;2024-03-22T04:01:17;4.00;1.00
262;DHT22;114;48.260;10.988;2024-03-22T04:03:43;3.90;1.00
262;DHT22;114;48.260;10.988;2024-03-22T04:06:11;3.80;1.00
262;DHT22;114;48.260;10.988;2024-03-22T04:08:37;3.70;1.00
262;DHT22;114;48.260;10.988;2024-03-22T04:11:03;3.70;1.00
262;DHT22;114;48.260;10.988;2024-03-22T04:13:30;3.70;1.00
262;DHT22;114;48.260;10.988;2024-03-22T04:15:59;3.60;1.00
262;DHT22;114;48.260;10.988;2024-03-22T04:18:25;3.60;1.00
262;DHT22;114;48.260;10.988;2024-03-22T04:20:57;3.60;1.00
262;DHT22;114;48.260;10.988;2024-03-22T04:23:24;3.50;1.00
262;DHT22;114;48.260;10.988;2024-03-22T04:26:00;3.40;1.00
262;DHT22;114;48.260;10.988;2024-03-22T04:28:27;3.40;1.00
262;DHT22;114;48.260;10.988;2024-03-22T04:31:00;3.40;1.00
262;DHT22;114;48.260;10.988;2024-03-22T04:33:26;3.40;1.00
262;DHT22;114;48.260;10.988;2024-03-22T04:35:57;3.40;1.00
262;DHT22;114;48.260;10.988;2024-03-22T04:38:24;3.40;1.00
262;DHT22;114;48.260;10.988;2024-03-22T04:40:50;3.30;1.00
262;DHT22;114;48.260;10.988;2024-03-22T04:43:18;3.40;1.00
262;DHT22;114;48.260;10.988;2024-03-22T04:45:44;3.40;1.00
262;DHT22;114;48.260;10.988;2024-03-22T04:48:17;3.50;1.00
262;DHT22;114;48.260;10.988;2024-03-22T04:50:42;3.60;1.00
262;DHT22;114;48.260;10.988;2024-03-22T04:53:08;3.60;1.00
262;DHT22;114;48.260;10.988;2024-03-22T04:55:34;3.60;1.00
262;DHT22;114;48.260;10.988;2024-03-22T04:58:03;3.60;1.00
262;DHT22;114;48.260;10.988;2024-03-22T05:00:29;3.60;1.00
262;DHT22;114;48.260;10.988;2024-03-22T05:02:56;3.70;1.00
262;DHT22;114;48.260;10.988;2024-03-22T05:05:25;3.70;1.00
262;DHT22;114;48.260;10.988;2024-03-22T05:07:51;3.70;1.00
262;DHT22;114;48.260;10.988;2024-03-22T05:10:20;3.70;1.00
262;DHT22;114;48.260;10.988;2024-03-22T05:12:48;3.60;1.00
262;DHT22;114;48.260;10.988;2024-03-22T05:15:14;3.70;1.00
262;DHT22;114;48.260;10.988;2024-03-22T05:17:40;3.70;1.00
262;DHT22;114;48.260;10.988;2024-03-22T05:20:07;3.80;1.00
262;DHT22;114;48.260;10.988;2024-03-22T05:22:37;3.90;1.00
262;DHT22;114;48.260;10.988;2024-03-22T05:25:04;4.00;1.00
262;DHT22;114;48.260;10.988;2024-03-22T05:27:34;4.00;1.00
262;DHT22;114;48.260;10.988;2024-03-22T05:30:00;4.00;1.00
262;DHT22;114;48.260;10.988;2024-03-22T05:32:26;4.10;1.00
262;DHT22;114;48.260;10.988;2024-03-22T05:34:52;4.10;1.00
262;DHT22;114;48.260;10.988;2024-03-22T05:37:18;4.10;1.00
262;DHT22;114;48.260;10.988;2024-03-22T05:39:44;4.10;1.00
262;DHT22;114;48.260;10.988;2024-03-22T05:42:10;4.10;1.00
262;DHT22;114;48.260;10.988;2024-03-22T05:44:36;4.00;1.00
262;DHT22;114;48.260;10.988;2024-03-22T05:47:02;4.00;1.00
262;DHT22;114;48.260;10.988;2024-03-22T05:49:29;3.90;1.00
262;DHT22;114;48.260;10.988;2024-03-22T05:51:55;3.90;1.00
262;DHT22;114;48.260;10.988;2024-03-22T05:54:22;3.90;1.00
262;DHT22;114;48.260;10.988;2024-03-22T05:56:48;3.90;1.00
262;DHT22;114;48.260;10.988;2024-03-22T05:59:14;3.90;1.00
262;DHT22;114;48.260;10.988;2024-03-22T06:01:40;3.90;1.00
262;DHT22;114;48.260;10.988;2024-03-22T06:04:06;4.00;1.00
262;DHT22;114;48.260;10.988;2024-03-22T06:06:35;4.00;1.00
262;DHT22;114;48.260;10.988;2024-03-22T06:09:04;4.00;1.00
262;DHT22;114;48.260;10.988;2024-03-22T06:11:35;4.10;1.00
262;DHT22;114;48.260;10.988;2024-03-22T06:14:01;4.10;1.00
262;DHT22;114;48.260;10.988;2024-03-22T06:16:34;4.20;1.00
262;DHT22;114;48.260;10.988;2024-03-22T06:19:00;4.30;1.00
262;DHT22;114;48.260;10.988;2024-03-22T06:21:26;4.50;1.00
262;DHT22;114;48.260;10.988;2024-03-22T06:23:52;4.50;1.00
262;DHT22;114;48.260;10.988;2024-03-22T06:26:18;4.60;1.00
262;DHT22;114;48.260;10.988;2024-03-22T06:28:47;4.70;1.00
262;DHT22;114;48.260;10.988;2024-03-22T06:31:14;4.90;1.00
262;DHT22;114;48.260;10.988;2024-03-22T06:33:42;5.10;1.00
262;DHT22;114;48.260;10.988;2024-03-22T06:36:09;5.20;1.00
262;DHT22;114;48.260;10.988;2024-03-22T06:38:35;5.40;1.00
262;DHT22;114;48.260;10.988;2024-03-22T06:41:01;5.50;1.00
262;DHT22;114;48.260;10.988;2024-03-22T06:43:29;5.70;1.00
262;DHT22;114;48.260;10.988;2024-03-22T06:45:55;6.00;1.00
262;DHT22;114;48.260;10.988;2024-03-22T06:48:20;6.10;1.00
262;DHT22;114;48.260;10.988;2024-03-22T06:50:46;6.40;1.00
262;DHT22;114;48.260;10.988;2024-03-22T06:53:12;6.70;1.00
262;DHT22;114;48.260;10.988;2024-03-22T06:55:39;7.00;1.00
262;DHT22;114;48.260;10.988;2024-03-22T06:58:05;7.40;1.00
262;DHT22;114;48.260;10.988;2024-03-22T07:00:30;7.70;1.00
262;DHT22;114;48.260;10.988;2024-03-22T07:02:57;7.80;1.00
262;DHT22;114;48.260;10.988;2024-03-22T07:05:25;7.90;1.00
262;DHT22;114;48.260;10.988;2024-03-22T07:07:51;7.90;1.00
262;DHT22;114;48.260;10.988;2024-03-22T07:10:22;7.90;1.00
262;DHT22;114;48.260;10.988;2024-03-22T07:12:50;8.20;1.00
262;DHT22;114;48.260;10.988;2024-03-22T07:15:16;8.40;1.00
262;DHT22;114;48.260;10.988;2024-03-22T07:17:42;8.50;1.00
262;DHT22;114;48.260;10.988;2024-03-22T07:20:08;8.60;1.00
262;DHT22;114;48.260;10.988;2024-03-22T07:22:35;8.70;1.00
262;DHT22;114;48.260;10.988;2024-03-22T07:25:00;8.70;1.00
262;DHT22;114;48.260;10.988;2024-03-22T07:27:26;8.70;1.00
262;DHT22;114;48.260;10.988;2024-03-22T07:29:55;8.80;1.00
262;DHT22;114;48.260;10.988;2024-03-22T07:32:20;8.80;1.00
262;DHT22;114;48.260;10.988;2024-03-22T07:34:46;9.00;1.00
262;DHT22;114;48.260;10.988;2024-03-22T07:37:12;9.30;1.00
262;DHT22;114;48.260;10.988;2024-03-22T07:39:38;9.60;1.00
262;DHT22;114;48.260;10.988;2024-03-22T07:42:05;9.70;1.00
262;DHT22;114;48.260;10.988;2024-03-22T07:44:33;9.90;1.00
262;DHT22;114;48.260;10.988;2024-03-22T07:46:59;9.90;1.00
262;DHT22;114;48.260;10.988;2024-03-22T07:49:31;10.10;1.00
262;DHT22;114;48.260;10.988;2024-03-22T07:52:02;10.10;1.00
262;DHT22;114;48.260;10.988;2024-03-22T07:54:29;10.00;1.00
262;DHT22;114;48.260;10.988;2024-03-22T07:56:57;9.90;1.00
262;DHT22;114;48.260;10.988;2024-03-22T07:59:32;10.00;1.00
262;DHT22;114;48.260;10.988;2024-03-22T08:01:57;10.20;1.00
262;DHT22;114;48.260;10.988;2024-03-22T08:04:32;10.50;1.00
262;DHT22;114;48.260;10.988;2024-03-22T08:07:04;10.50;1.00
262;DHT22;114;48.260;10.988;2024-03-22T08:09:39;10.70;1.00
262;DHT22;114;48.260;10.988;2024-03-22T08:12:19;10.90;1.00
262;DHT22;114;48.260;10.988;2024-03-22T08:14:47;11.00;1.00
262;DHT22;114;48.260;10.988;2024-03-22T08:17:14;11.10;1.00
262;DHT22;114;48.260;10.988;2024-03-22T08:19:40;11.30;1.00
262;DHT22;114;48.260;10.988;2024-03-22T08:22:06;11.30;1.00
262;DHT22;114;48.260;10.988;2024-03-22T08:24:33;11.30;1.00
262;DHT22;114;48.260;10.988;2024-03-22T08:26:59;11.40;1.00
262;DHT22;114;48.260;10.988;2024-03-22T08:29:26;11.60;1.00
262;DHT22;114;48.260;10.988;2024-03-22T08:31:52;11.70;1.00
262;DHT22;114;48.260;10.988;2024-03-22T08:34:21;11.80;1.00
262;DHT22;114;48.260;10.988;2024-03-22T08:36:47;11.80;1.00
262;DHT22;114;48.260;10.988;2024-03-22T08:39:12;11.90;1.00
262;DHT22;114;48.260;10.988;2024-03-22T08:41:38;11.90;1.00
262;DHT22;114;48.260;10.988;2024-03-22T08:44:04;12.10;1.00
262;DHT22;114;48.260;10.988;2024-03-22T08:46:31;12.20;1.00
262;DHT22;114;48.260;10.988;2024-03-22T08:49:00;12.20;1.00
262;DHT22;114;48.260;10.988;2024-03-22T08:51:26;12.30;1.00
262;DHT22;114;48.260;10.988;2024-03-22T08:53:52;12.60;1.00
262;DHT22;114;48.260;10.988;2024-03-22T08:56:18;12.90;1.00
262;DHT22;114;48.260;10.988;2024-03-22T08:58:43;13.00;1.00
262;DHT22;114;48.260;10.988;2024-03-22T09:01:09;13.20;1.00
262;DHT22;114;48.260;10.988;2024-03-22T09:03:37;13.20;1.00
262;DHT22;114;48.260;10.988;2024-03-22T09:06:02;13.40;1.00
262;DHT22;114;48.260;10.988;2024-03-22T09:08:29;13.60;1.00
262;DHT22;114;48.260;10.988;2024-03-22T09:10:55;13.60;1.00
262;DHT22;114;48.260;10.988;2024-03-22T09:13:22;13.70;1.00
262;DHT22;114;48.260;10.988;2024-03-22T09:15:55;13.70;1.00
262;DHT22;114;48.260;10.988;2024-03-22T09:18:21;13.60;1.00
262;DHT22;114;48.260;10.988;2024-03-22T09:20:48;13.90;1.00
262;DHT22;114;48.260;10.988;2024-03-22T09:23:14;14.10;1.00
262;DHT22;114;48.260;10.988;2024-03-22T09:25:40;14.30;1.00
262;DHT22;114;48.260;10.988;2024-03-22T09:28:07;14.40;1.00
262;DHT22;114;48.260;10.988;2024-03-22T09:30:38;14.70;1.00
262;DHT22;114;48.260;10.988;2024-03-22T09:33:11;14.70;1.00
262;DHT22;114;48.260;10.988;2024-03-22T09:35:46;14.60;1.00
262;DHT22;114;48.260;10.988;2024-03-22T09:38:22;14.80;1.00
262;DHT22;114;48.260;10.988;2024-03-22T09:40:53;14.80;1.00
262;DHT22;114;48.260;10.988;2024-03-22T09:43:31;14.90;1.00
262;DHT22;114;48.260;10.988;2024-03-22T09:45:59;15.10;1.00
262;DHT22;114;48.260;10.988;2024-03-22T09:48:26;15.20;1.00
262;DHT22;114;48.260;10.988;2024-03-22T09:50:55;15.30;1.00
262;DHT22;114;48.260;10.988;2024-03-22T09:53:22;15.40;1.00
262;DHT22;114;48.260;10.988;2024-03-22T09:55:49;15.40;1.00
262;DHT22;114;48.260;10.988;2024-03-22T09:58:15;15.20;1.00
262;DHT22;114;48.260;10.988;2024-03-22T10:00:44;15.20;1.00
262;DHT22;114;48.260;10.988;2024-03-22T10:03:14;15.20;1.00
262;DHT22;114;48.260;10.988;2024-03-22T10:05:42;15.30;1.00
262;DHT22;114;48.260;10.988;2024-03-22T10:08:07;15.30;1.00
262;DHT22;114;48.260;10.988;2024-03-22T10:10:34;15.10;1.00
262;DHT22;114;48.260;10.988;2024-03-22T10:13:03;15.20;1.00
262;DHT22;114;48.260;10.988;2024-03-22T10:15:33;15.60;1.00
262;DHT22;114;48.260;10.988;2024-03-22T10:17:59;15.60;1.00
262;DHT22;114;48.260;10.988;2024-03-22T10:20:31;15.60;1.00
262;DHT22;114;48.260;10.988;2024-03-22T10:22:59;15.90;1.00
262;DHT22;114;48.260;10.988;2024-03-22T10:25:29;15.90;1.00
262;DHT22;114;48.260;10.988;2024-03-22T10:27:55;15.80;1.00
262;DHT22;114;48.260;10.988;2024-03-22T10:30:24;16.10;1.00
262;DHT22;114;48.260;10.988;2024-03-22T10:32:57;16.40;1.00
262;DHT22;114;48.260;10.988;2024-03-22T10:35:33;16.50;1.00
262;DHT22;114;48.260;10.988;2024-03-22T10:38:06;16.40;1.00
262;DHT22;114;48.260;10.988;2024-03-22T10:40:44;16.40;1.00
262;DHT22;114;48.260;10.988;2024-03-22T10:43:21;16.40;1.00
262;DHT22;114;48.260;10.988;2024-03-22T10:45:51;16.30;1.00
262;DHT22;114;48.260;10.988;2024-03-22T10:48:31;16.70;1.00
262;DHT22;114;48.260;10.988;2024-03-22T10:51:09;17.20;1.00
262;DHT22;114;48.260;10.988;2024-03-22T10:53:43;17.80;1.00
262;DHT22;114;48.260;10.988;2024-03-22T10:56:22;18.10;1.00
262;DHT22;114;48.260;10.988;2024-03-22T10:58:50;17.90;1.00
262;DHT22;114;48.260;10.988;2024-03-22T11:01:33;18.20;1.00
262;DHT22;114;48.260;10.988;2024-03-22T11:04:05;18.60;1.00
262;DHT22;114;48.260;10.988;2024-03-22T11:06:32;19.10;1.00
262;DHT22;114;48.260;10.988;2024-03-22T11:09:00;19.30;1.00
262;DHT22;114;48.260;10.988;2024-03-22T11:11:30;19.00;1.00
262;DHT22;114;48.260;10.988;2024-03-22T11:14:05;18.70;1.00
262;DHT22;114;48.260;10.988;2024-03-22T11:16:31;18.90;1.00
262;DHT22;114;48.260;10.988;2024-03-22T11:18:58;19.50;1.00
262;DHT22;114;48.260;10.988;2024-03-22T11:21:24;19.30;1.00
262;DHT22;114;48.260;10.988;2024-03-22T11:23:50;19.50;1.00
262;DHT22;114;48.260;10.988;2024-03-22T11:26:19;19.80;1.00
262;DHT22;114;48.260;10.988;2024-03-22T11:28:46;19.90;1.00
262;DHT22;114;48.260;10.988;2024-03-22T11:31:14;19.70;1.00
262;DHT22;114;48.260;10.988;2024-03-22T11:33:40;19.70;1.00
262;DHT22;114;48.260;10.988;2024-03-22T11:36:06;20.30;1.00
262;DHT22;114;48.260;10.988;2024-03-22T11:38:32;20.50;1.00
262;DHT22;114;48.260;10.988;2024-03-22T11:40:59;20.10;1.00
262;DHT22;114;48.260;10.988;2024-03-22T11:43:28;20.00;1.00
262;DHT22;114;48.260;10.988;2024-03-22T11:45:55;20.60;1.00
262;DHT22;114;48.260;10.988;2024-03-22T11:48:25;20.50;1.00
262;DHT22;114;48.260;10.988;2024-03-22T11:50:59;20.90;1.00
262;DHT22;114;48.260;10.988;2024-03-22T11:53:39;21.30;1.00
262;DHT22;114;48.260;10.988;2024-03-22T11:56:13;21.30;1.00
262;DHT22;114;48.260;10.988;2024-03-22T11:58:46;21.90;1.00
262;DHT22;114;48.260;10.988;2024-03-22T12:01:16;22.10;1.00
262;DHT22;114;48.260;10.988;2024-03-22T12:03:47;21.30;1.00
262;DHT22;114;48.260;10.988;2024-03-22T12:06:14;21.30;1.00
262;DHT22;114;48.260;10.988;2024-03-22T12:08:47;21.10;1.00
262;DHT22;114;48.260;10.988;2024-03-22T12:11:13;20.70;1.00
262;DHT22;114;48.260;10.988;2024-03-22T12:13:40;20.80;1.00
262;DHT22;114;48.260;10.988;2024-03-22T12:16:07;20.40;1.00
262;DHT22;114;48.260;10.988;2024-03-22T12:18:33;20.70;1.00
262;DHT22;114;48.260;10.988;2024-03-22T12:20:59;20.90;1.00
262;DHT22;114;48.260;10.988;2024-03-22T12:23:26;20.90;1.00
262;DHT22;114;48.260;10.988;2024-03-22T12:25:52;21.10;1.00
262;DHT22;114;48.260;10.988;2024-03-22T12:28:21;21.80;1.00
262;DHT22;114;48.260;10.988;2024-03-22T12:30:50;22.80;1.00
262;DHT22;114;48.260;10.988;2024-03-22T12:33:20;23.20;1.00
262;DHT22;114;48.260;10.988;2024-03-22T12:35:47;23.40;1.00
262;DHT22;114;48.260;10.988;2024-03-22T12:38:13;23.90;1.00
262;DHT22;114;48.260;10.988;2024-03-22T12:40:45;23.70;1.00
262;DHT22;114;48.260;10.988;2024-03-22T12:43:13;24.00;1.00
262;DHT22;114;48.260;10.988;2024-03-22T12:45:39;23.50;1.00
262;DHT22;114;48.260;10.988;2024-03-22T12:48:08;23.30;1.00
262;DHT22;114;48.260;10.988;2024-03-22T12:50:36;23.60;1.00
262;DHT22;114;48.260;10.988;2024-03-22T12:53:02;23.30;1.00
262;DHT22;114;48.260;10.988;2024-03-22T12:55:27;23.00;1.00
262;DHT22;114;48.260;10.988;2024-03-22T12:57:58;23.00;1.00
262;DHT22;114;48.260;10.988;2024-03-22T13:00:25;22.00;1.00
262;DHT22;114;48.260;10.988;2024-03-22T13:02:55;22.50;1.00
262;DHT22;114;48.260;10.988;2024-03-22T13:05:21;22.70;1.00
262;DHT22;114;48.260;10.988;2024-03-22T13:07:48;22.50;1.00
262;DHT22;114;48.260;10.988;2024-03-22T13:10:16;22.90;1.00
262;DHT22;114;48.260;10.988;2024-03-22T13:12:42;22.60;1.00
262;DHT22;114;48.260;10.988;2024-03-22T13:15:08;22.70;1.00
262;DHT22;114;48.260;10.988;2024-03-22T13:17:37;23.30;1.00
262;DHT22;114;48.260;10.988;2024-03-22T13:20:03;24.00;1.00
262;DHT22;114;48.260;10.988;2024-03-22T13:22:41;24.30;1.00
262;DHT22;114;48.260;10.988;2024-03-22T13:25:06;24.00;1.00
262;DHT22;114;48.260;10.988;2024-03-22T13:27:34;23.80;1.00
262;DHT22;114;48.260;10.988;2024-03-22T13:30:01;23.30;1.00
262;DHT22;114;48.260;10.988;2024-03-22T13:32:28;23.40;1.00
262;DHT22;114;48.260;10.988;2024-03-22T13:34:54;23.60;1.00
262;DHT22;114;48.260;10.988;2024-03-22T13:37:20;23.60;1.00
262;DHT22;114;48.260;10.988;2024-03-22T13:39:50;24.50;1.00
262;DHT22;114;48.260;10.988;2024-03-22T13:42:17;25.30;1.00
262;DHT22;114;48.260;10.988;2024-03-22T13:44:45;25.50;1.00
262;DHT22;114;48.260;10.988;2024-03-22T13:47:11;25.80;1.00
262;DHT22;114;48.260;10.988;2024-03-22T13:49:37;25.80;1.00
262;DHT22;114;48.260;10.988;2024-03-22T13:52:07;24.90;1.00
262;DHT22;114;48.260;10.988;2024-03-22T13:54:34;24.10;1.00
262;DHT22;114;48.260;10.988;2024-03-22T13:56:59;23.70;1.00
262;DHT22;114;48.260;10.988;2024-03-22T13:59:29;23.90;1.00
262;DHT22;114;48.260;10.988;2024-03-22T14:01:55;24.10;1.00
262;DHT22;114;48.260;10.988;2024-03-22T14:04:25;23.90;1.00
262;DHT22;114;48.260;10.988;2024-03-22T14:06:52;24.10;1.00
262;DHT22;114;48.260;10.988;2024-03-22T14:09:19;23.80;1.00
262;DHT22;114;48.260;10.988;2024-03-22T14:11:45;23.90;1.00
262;DHT22;114;48.260;10.988;2024-03-22T14:14:15;24.10;1.00
262;DHT22;114;48.260;10.988;2024-03-22T14:16:42;23.70;1.00
262;DHT22;114;48.260;10.988;2024-03-22T14:19:08;22.90;1.00
262;DHT22;114;48.260;10.988;2024-03-22T14:21:34;22.60;1.00
262;DHT22;114;48.260;10.988;2024-03-22T14:24:01;22.70;1.00
262;DHT22;114;48.260;10.988;2024-03-22T14:26:28;22.30;1.00
262;DHT22;114;48.260;10.988;2024-03-22T14:28:54;21.90;1.00
262;DHT22;114;48.260;10.988;2024-03-22T14:31:20;21.40;1.00
262;DHT22;114;48.260;10.988;2024-03-22T14:33:48;21.30;1.00
262;DHT22;114;48.260;10.988;2024-03-22T14:36:13;21.90;1.00
262;DHT22;114;48.260;10.988;2024-03-22T14:38:39;22.40;1.00
262;DHT22;114;48.260;10.988;2024-03-22T14:41:06;22.60;1.00
262;DHT22;114;48.260;10.988;2024-03-22T14:43:38;22.60;1.00
262;DHT22;114;48.260;10.988;2024-03-22T14:46:05;23.10;1.00
262;DHT22;114;48.260;10.988;2024-03-22T14:48:35;22.90;1.00
262;DHT22;114;48.260;10.988;2024-03-22T14:51:01;22.40;1.00
262;DHT22;114;48.260;10.988;2024-03-22T14:53:27;22.60;1.00
262;DHT22;114;48.260;10.988;2024-03-22T14:56:12;22.80;1.00
262;DHT22;114;48.260;10.988;2024-03-22T14:58:39;22.20;1.00
262;DHT22;114;48.260;10.988;2024-03-22T15:01:05;21.90;1.00
262;DHT22;114;48.260;10.988;2024-03-22T15:03:32;21.80;1.00
262;DHT22;114;48.260;10.988;2024-03-22T15:06:04;21.30;1.00
262;DHT22;114;48.260;10.988;2024-03-22T15:08:31;20.70;1.00
262;DHT22;114;48.260;10.988;2024-03-22T15:10:58;20.50;1.00
262;DHT22;114;48.260;10.988;2024-03-22T15:13:24;20.70;1.00
262;DHT22;114;48.260;10.988;2024-03-22T15:15:59;20.60;1.00
262;DHT22;114;48.260;10.988;2024-03-22T15:18:25;20.10;1.00
262;DHT22;114;48.260;10.988;2024-03-22T15:20:58;19.60;1.00
262;DHT22;114;48.260;10.988;2024-03-22T15:23:30;19.30;1.00
262;DHT22;114;48.260;10.988;2024-03-22T15:25:55;19.50;1.00
262;DHT22;114;48.260;10.988;2024-03-22T15:28:22;19.40;1.00
262;DHT22;114;48.260;10.988;2024-03-22T15:30:48;19.10;1.00
262;DHT22;114;48.260;10.988;2024-03-22T15:33:14;18.90;1.00
262;DHT22;114;48.260;10.988;2024-03-22T15:35:41;18.80;1.00
262;DHT22;114;48.260;10.988;2024-03-22T15:38:12;18.50;1.00
262;DHT22;114;48.260;10.988;2024-03-22T15:40:38;18.40;1.00
262;DHT22;114;48.260;10.988;2024-03-22T15:43:03;18.20;1.00
262;DHT22;114;48.260;10.988;2024-03-22T15:45:34;18.20;1.00
262;DHT22;114;48.260;10.988;2024-03-22T15:48:06;17.90;1.00
262;DHT22;114;48.260;10.988;2024-03-22T15:50:35;17.80;1.00
262;DHT22;114;48.260;10.988;2024-03-22T15:53:02;17.70;1.00
262;DHT22;114;48.260;10.988;2024-03-22T15:55:30;17.70;1.00
262;DHT22;114;48.260;10.988;2024-03-22T15:58:04;17.60;1.00
262;DHT22;114;48.260;10.988;2024-03-22T16:00:40;17.60;1.00
262;DHT22;114;48.260;10.988;2024-03-22T16:03:15;17.50;1.00
262;DHT22;114;48.260;10.988;2024-03-22T16:05:51;17.60;1.00
262;DHT22;114;48.260;10.988;2024-03-22T16:08:27;17.70;1.00
262;DHT22;114;48.260;10.988;2024-03-22T16:10:59;17.60;1.00
262;DHT22;114;48.260;10.988;2024-03-22T16:13:26;17.40;1.00
262;DHT22;114;48.260;10.988;2024-03-22T16:15:51;17.30;1.00
262;DHT22;114;48.260;10.988;2024-03-22T16:18:17;17.40;1.00
262;DHT22;114;48.260;10.988;2024-03-22T16:20:43;17.30;1.00
262;DHT22;114;48.260;10.988;2024-03-22T16:23:09;17.30;1.00
262;DHT22;114;48.260;10.988;2024-03-22T16:25:36;17.20;1.00
262;DHT22;114;48.260;10.988;2024-03-22T16:28:03;17.20;1.00
262;DHT22;114;48.260;10.988;2024-03-22T16:30:29;17.20;1.00
262;DHT22;114;48.260;10.988;2024-03-22T16:32:59;17.20;1.00
262;DHT22;114;48.260;10.988;2024-03-22T16:35:27;17.00;1.00
262;DHT22;114;48.260;10.988;2024-03-22T16:37:53;17.00;1.00
262;DHT22;114;48.260;10.988;2024-03-22T16:40:22;17.00;1.00
262;DHT22;114;48.260;10.988;2024-03-22T16:42:50;16.80;1.00
262;DHT22;114;48.260;10.988;2024-03-22T16:45:17;16.60;1.00